createdAt,value
2018-08-10T00:00:13.869Z,26.99
2018-08-10T00:02:39.850Z,26.98
2018-08-10T00:05:05.820Z,26.98
2018-08-10T00:07:31.805Z,26.99
2018-08-10T00:09:57.790Z,26.98
2018-08-10T00:12:23.763Z,26.98
2018-08-10T00:14:49.746Z,26.98
2018-08-10T00:17:15.727Z,26.97
2018-08-10T00:19:41.705Z,26.97
2018-08-10T00:22:07.972Z,26.98
2018-08-10T00:24:33.945Z,26.98
2018-08-10T00:26:59.961Z,26.98
2018-08-10T00:29:25.939Z,26.98
2018-08-10T00:31:51.922Z,26.97
2018-08-10T00:34:17.892Z,26.97
2018-08-10T00:36:43.901Z,26.97
2018-08-10T00:39:09.883Z,26.97
2018-08-10T00:41:35.853Z,26.97
2018-08-10T00:44:01.832Z,26.97
2018-08-10T00:46:27.809Z,26.97
2018-08-10T00:48:53.782Z,26.96
2018-08-10T00:51:19.764Z,26.97
2018-08-10T00:53:45.741Z,26.97
2018-08-10T00:56:11.716Z,26.97
2018-08-10T00:58:37.732Z,26.97
2018-08-10T01:01:03.705Z,26.97
2018-08-10T01:03:29.682Z,26.97
2018-08-10T01:05:55.663Z,26.97
2018-08-10T01:08:21.638Z,26.97
2018-08-10T01:10:47.618Z,26.97
2018-08-10T01:13:13.619Z,26.96
2018-08-10T01:15:39.570Z,26.97
2018-08-10T01:18:05.557Z,26.96
2018-08-10T01:20:31.538Z,26.96
2018-08-10T01:22:57.513Z,26.96
2018-08-10T01:25:23.488Z,26.96
2018-08-10T01:27:49.467Z,26.96
2018-08-10T01:30:15.438Z,26.96
2018-08-10T01:32:41.422Z,26.96
2018-08-10T01:35:07.394Z,26.96
2018-08-10T01:37:33.372Z,26.95
2018-08-10T01:39:59.342Z,26.96
2018-08-10T01:42:25.316Z,26.96
2018-08-10T01:44:51.297Z,26.95
2018-08-10T01:47:17.271Z,26.96
2018-08-10T01:49:43.247Z,26.96
2018-08-10T01:52:09.217Z,26.95
2018-08-10T01:54:35.197Z,26.95
2018-08-10T01:57:01.169Z,26.95
2018-08-10T01:59:27.144Z,26.95
2018-08-10T02:01:53.125Z,26.95
2018-08-10T02:04:19.100Z,26.95
2018-08-10T02:06:45.076Z,26.96
2018-08-10T02:09:11.059Z,26.95
2018-08-10T02:11:37.034Z,26.95
2018-08-10T02:14:03.009Z,26.94
2018-08-10T02:16:28.985Z,26.95
2018-08-10T02:18:54.968Z,26.95
2018-08-10T02:21:20.940Z,26.95
2018-08-10T02:23:46.961Z,26.95
2018-08-10T02:26:12.934Z,26.94
2018-08-10T02:28:38.905Z,26.94
2018-08-10T02:31:04.886Z,26.94
2018-08-10T02:33:30.859Z,26.95
2018-08-10T02:35:56.834Z,26.94
2018-08-10T02:38:22.814Z,26.94
2018-08-10T02:40:48.823Z,26.94
2018-08-10T02:43:14.793Z,26.95
2018-08-10T02:45:40.765Z,26.94
2018-08-10T02:48:06.740Z,26.94
2018-08-10T02:50:32.714Z,26.94
2018-08-10T02:52:58.694Z,26.94
2018-08-10T02:55:24.672Z,26.93
2018-08-10T02:57:50.648Z,26.94
2018-08-10T03:00:16.630Z,26.93
2018-08-10T03:02:42.641Z,26.93
2018-08-10T03:05:08.650Z,26.94
2018-08-10T03:07:34.622Z,26.93
2018-08-10T03:10:00.600Z,26.93
2018-08-10T03:12:26.606Z,26.93
2018-08-10T03:14:52.580Z,26.93
2018-08-10T03:17:18.558Z,26.93
2018-08-10T03:19:44.540Z,26.94
2018-08-10T03:22:10.597Z,26.93
2018-08-10T03:24:36.574Z,26.93
2018-08-10T03:27:02.565Z,26.93
2018-08-10T03:29:28.544Z,26.93
2018-08-10T03:31:54.518Z,26.93
2018-08-10T03:34:20.498Z,26.93
2018-08-10T03:36:46.480Z,26.93
2018-08-10T03:39:12.464Z,26.93
2018-08-10T03:41:38.442Z,26.93
2018-08-10T03:44:04.415Z,26.92
2018-08-10T03:46:30.393Z,26.93
2018-08-10T03:48:56.373Z,26.93
2018-08-10T03:51:22.355Z,26.92
2018-08-10T03:53:48.342Z,26.93
2018-08-10T03:56:14.333Z,26.92
2018-08-10T03:58:40.301Z,26.92
2018-08-10T04:01:06.274Z,26.93
2018-08-10T04:03:32.272Z,26.93
2018-08-10T04:05:58.245Z,26.93
2018-08-10T04:08:24.218Z,26.93
2018-08-10T04:10:50.197Z,26.92
2018-08-10T04:13:16.174Z,26.93
2018-08-10T04:15:42.149Z,26.92
2018-08-10T04:18:08.124Z,26.92
2018-08-10T04:20:34.099Z,26.94
2018-08-10T04:23:00.076Z,26.95
2018-08-10T04:25:26.055Z,26.95
2018-08-10T04:27:52.035Z,26.96
2018-08-10T04:30:18.018Z,26.96
2018-08-10T04:32:43.998Z,26.97
2018-08-10T04:35:09.985Z,26.97
2018-08-10T04:37:35.965Z,26.97
2018-08-10T04:40:01.939Z,26.98
2018-08-10T04:42:27.917Z,26.99
2018-08-10T04:44:53.938Z,26.98
2018-08-10T04:47:19.908Z,26.99
2018-08-10T04:49:45.911Z,26.98
2018-08-10T04:52:11.864Z,26.98
2018-08-10T04:54:37.843Z,26.98
2018-08-10T04:57:03.829Z,26.99
2018-08-10T04:59:29.810Z,26.99
2018-08-10T05:01:55.815Z,26.99
2018-08-10T05:04:21.762Z,26.99
2018-08-10T05:06:47.746Z,26.99
2018-08-10T05:09:13.720Z,27.00
2018-08-10T05:11:39.732Z,26.99
2018-08-10T05:14:05.704Z,26.99
2018-08-10T05:16:31.684Z,26.99
2018-08-10T05:18:57.657Z,26.99
2018-08-10T05:21:23.654Z,26.98
2018-08-10T05:23:49.646Z,26.99
2018-08-10T05:26:15.655Z,26.98
2018-08-10T05:28:41.598Z,26.98
2018-08-10T05:31:07.577Z,26.98
2018-08-10T05:33:33.574Z,26.97
2018-08-10T05:35:59.588Z,26.97
2018-08-10T05:38:25.536Z,26.98
2018-08-10T05:40:51.512Z,26.98
2018-08-10T05:43:17.496Z,26.98
2018-08-10T05:45:43.570Z,26.98
2018-08-10T05:48:09.616Z,26.98
2018-08-10T05:50:35.517Z,26.97
2018-08-10T05:53:01.496Z,26.97
2018-08-10T05:55:27.523Z,26.97
2018-08-10T05:57:53.509Z,26.97
2018-08-10T06:00:19.522Z,26.97
2018-08-10T06:02:45.498Z,26.97
2018-08-10T06:05:11.520Z,26.97
2018-08-10T06:07:37.499Z,26.98
2018-08-10T06:10:03.477Z,26.97
2018-08-10T06:12:29.456Z,26.97
2018-08-10T06:14:55.437Z,26.97
2018-08-10T06:17:21.413Z,26.96
2018-08-10T06:19:47.444Z,26.97
2018-08-10T06:22:13.379Z,26.97
2018-08-10T06:24:39.362Z,26.97
2018-08-10T06:27:05.511Z,26.97
2018-08-10T06:29:31.553Z,26.97
2018-08-10T06:31:57.537Z,26.98
2018-08-10T06:34:23.533Z,26.98
2018-08-10T06:36:49.554Z,26.99
2018-08-10T06:39:15.526Z,27.00
2018-08-10T06:41:41.507Z,27.00
2018-08-10T06:44:07.483Z,27.00
2018-08-10T06:46:33.465Z,27.01
2018-08-10T06:48:59.505Z,27.02
2018-08-10T06:51:25.503Z,27.04
2018-08-10T06:53:51.485Z,27.03
2018-08-10T06:56:17.522Z,27.02
2018-08-10T06:58:43.509Z,27.02
2018-08-10T07:01:09.535Z,27.01
2018-08-10T07:03:35.480Z,27.02
2018-08-10T07:06:01.454Z,27.02
2018-08-10T07:08:27.428Z,27.02
2018-08-10T07:10:53.408Z,27.02
2018-08-10T07:13:19.466Z,27.02
2018-08-10T07:15:45.373Z,27.01
2018-08-10T07:18:11.355Z,27.01
2018-08-10T07:20:37.337Z,27.01
2018-08-10T07:23:03.334Z,27.01
2018-08-10T07:25:29.309Z,27.01
2018-08-10T07:27:55.292Z,27.01
2018-08-10T07:30:21.279Z,27.01
2018-08-10T07:32:47.283Z,27.01
2018-08-10T07:35:13.265Z,27.01
2018-08-10T07:37:39.269Z,27.00
2018-08-10T07:40:05.250Z,27.00
2018-08-10T07:42:31.230Z,27.00
2018-08-10T07:44:57.207Z,26.99
2018-08-10T07:47:23.268Z,26.99
2018-08-10T07:49:49.245Z,26.99
2018-08-10T07:52:15.288Z,26.99
2018-08-10T07:54:41.212Z,27.00
2018-08-10T07:57:07.195Z,26.99
2018-08-10T07:59:33.169Z,27.01
2018-08-10T08:01:59.144Z,27.02
2018-08-10T08:04:25.125Z,27.02
2018-08-10T08:06:51.145Z,27.02
2018-08-10T08:09:17.139Z,27.03
2018-08-10T08:11:43.092Z,27.03
2018-08-10T08:14:09.094Z,27.03
2018-08-10T08:16:35.097Z,27.03
2018-08-10T08:19:01.114Z,27.04
2018-08-10T08:21:27.060Z,27.04
2018-08-10T08:23:53.076Z,27.03
2018-08-10T08:26:19.059Z,27.04
2018-08-10T08:28:45.038Z,27.05
2018-08-10T08:31:11.018Z,27.05
2018-08-10T08:33:37.000Z,27.05
2018-08-10T08:36:02.974Z,27.05
2018-08-10T08:38:28.961Z,27.05
2018-08-10T08:40:54.949Z,27.05
2018-08-10T08:43:20.918Z,27.05
2018-08-10T08:45:47.182Z,27.04
2018-08-10T08:48:12.873Z,27.04
2018-08-10T08:50:38.846Z,27.05
2018-08-10T08:53:04.892Z,27.05
2018-08-10T08:55:30.872Z,27.06
2018-08-10T08:57:56.982Z,27.06
2018-08-10T09:00:22.956Z,27.06
2018-08-10T09:02:48.953Z,27.06
2018-08-10T09:05:14.927Z,27.07
2018-08-10T09:07:40.953Z,27.07
2018-08-10T09:10:06.913Z,27.07
2018-08-10T09:12:32.890Z,27.07
2018-08-10T09:14:58.834Z,27.07
2018-08-10T09:17:24.856Z,27.07
2018-08-10T09:19:50.810Z,27.08
2018-08-10T09:22:16.786Z,27.07
2018-08-10T09:24:42.758Z,27.08
2018-08-10T09:27:08.739Z,27.08
2018-08-10T09:29:34.765Z,27.08
2018-08-10T09:32:00.743Z,27.08
2018-08-10T09:34:26.726Z,27.09
2018-08-10T09:36:52.701Z,27.09
2018-08-10T09:39:18.683Z,27.09
2018-08-10T09:41:44.660Z,27.09
2018-08-10T09:44:10.671Z,27.09
2018-08-10T09:46:36.674Z,27.10
2018-08-10T09:49:02.644Z,27.09
2018-08-10T09:51:28.626Z,27.09
2018-08-10T09:53:54.623Z,27.09
2018-08-10T09:56:20.595Z,27.09
2018-08-10T09:58:46.586Z,27.09
2018-08-10T10:01:12.641Z,27.09
2018-08-10T10:03:38.542Z,27.10
2018-08-10T10:06:04.526Z,27.10
2018-08-10T10:08:30.537Z,27.10
2018-08-10T10:10:56.504Z,27.09
2018-08-10T10:13:22.481Z,27.09
2018-08-10T10:15:48.455Z,27.09
2018-08-10T10:18:14.461Z,27.10
2018-08-10T10:20:40.430Z,27.10
2018-08-10T10:23:06.412Z,27.10
2018-08-10T10:25:32.436Z,27.10
2018-08-10T10:27:58.385Z,27.11
2018-08-10T10:30:24.525Z,27.10
2018-08-10T10:32:50.516Z,27.10
2018-08-10T10:35:16.488Z,27.10
2018-08-10T10:37:42.471Z,27.10
2018-08-10T10:40:08.448Z,27.12
2018-08-10T10:42:34.575Z,27.12
2018-08-10T10:45:00.549Z,27.13
2018-08-10T10:47:26.593Z,27.12
2018-08-10T10:49:52.513Z,27.11
2018-08-10T10:52:18.487Z,27.12
2018-08-10T10:54:44.492Z,27.12
2018-08-10T10:57:10.497Z,27.13
2018-08-10T10:59:36.474Z,27.14
2018-08-10T11:02:02.494Z,27.14
2018-08-10T11:04:28.474Z,27.14
2018-08-10T11:06:54.576Z,27.15
2018-08-10T11:09:20.570Z,27.15
2018-08-10T11:11:46.540Z,27.15
2018-08-10T11:14:12.581Z,27.16
2018-08-10T11:16:38.597Z,27.16
2018-08-10T11:19:04.582Z,27.16
2018-08-10T11:21:30.579Z,27.17
2018-08-10T11:23:56.600Z,27.18
2018-08-10T11:26:22.552Z,27.19
2018-08-10T11:28:48.590Z,27.20
2018-08-10T11:31:14.560Z,27.20
2018-08-10T11:33:40.547Z,27.21
2018-08-10T11:36:06.571Z,27.21
2018-08-10T11:38:32.558Z,27.22
2018-08-10T11:40:58.539Z,27.23
2018-08-10T11:43:24.520Z,27.23
2018-08-10T11:45:50.515Z,27.24
2018-08-10T11:48:16.981Z,27.23
2018-08-10T11:50:43.026Z,27.24
2018-08-10T11:53:09.008Z,27.25
2018-08-10T11:55:34.993Z,27.26
2018-08-10T11:58:00.976Z,27.27
2018-08-10T12:00:26.947Z,27.28
2018-08-10T12:02:52.931Z,27.29
2018-08-10T12:05:18.907Z,27.29
2018-08-10T12:07:44.891Z,27.29
2018-08-10T12:10:10.865Z,27.30
2018-08-10T12:12:36.950Z,27.29
2018-08-10T12:15:02.836Z,27.29
2018-08-10T12:17:28.828Z,27.27
2018-08-10T12:19:54.811Z,27.28
2018-08-10T12:22:20.790Z,27.28
2018-08-10T12:24:46.778Z,27.30
2018-08-10T12:27:12.805Z,27.31
2018-08-10T12:29:38.782Z,27.31
2018-08-10T12:32:04.758Z,27.32
2018-08-10T12:34:30.762Z,27.33
2018-08-10T12:36:56.747Z,27.33
2018-08-10T12:39:22.725Z,27.34
2018-08-10T12:41:48.719Z,27.35
2018-08-10T12:44:14.693Z,27.36
2018-08-10T12:46:40.812Z,27.36
2018-08-10T12:49:06.711Z,27.36
2018-08-10T12:51:32.687Z,27.35
2018-08-10T12:53:58.846Z,27.36
2018-08-10T12:56:24.842Z,27.36
2018-08-10T12:58:50.833Z,27.37
2018-08-10T13:01:16.988Z,27.36
2018-08-10T13:03:42.985Z,27.35
2018-08-10T13:06:09.099Z,27.34
2018-08-10T13:08:35.074Z,27.34
2018-08-10T13:11:01.084Z,27.34
2018-08-10T13:13:27.428Z,27.35
2018-08-10T13:15:53.394Z,27.35
2018-08-10T13:18:19.416Z,27.34
2018-08-10T13:20:45.761Z,27.34
2018-08-10T13:23:11.753Z,27.33
2018-08-10T13:25:37.739Z,27.34
2018-08-10T13:28:03.729Z,27.34
2018-08-10T13:30:29.717Z,27.35
2018-08-10T13:32:56.062Z,27.36
2018-08-10T13:35:22.080Z,27.36
2018-08-10T13:37:48.080Z,27.35
2018-08-10T13:40:14.069Z,27.35
2018-08-10T13:42:40.093Z,27.35
2018-08-10T13:45:06.114Z,27.35
2018-08-10T13:47:32.093Z,27.32
2018-08-10T13:49:58.309Z,27.33
2018-08-10T13:52:24.326Z,27.32
2018-08-10T13:54:50.337Z,27.34
2018-08-10T13:57:16.363Z,27.35
2018-08-10T13:59:42.317Z,27.35
2018-08-10T14:02:08.307Z,27.34
2018-08-10T14:04:34.358Z,27.34
2018-08-10T14:07:00.342Z,27.33
2018-08-10T14:09:26.331Z,27.33
2018-08-10T14:11:52.315Z,27.32
2018-08-10T14:14:18.436Z,27.31
2018-08-10T14:16:44.457Z,27.30
2018-08-10T14:19:10.448Z,27.29
2018-08-10T14:21:36.432Z,27.28
2018-08-10T14:24:02.535Z,27.28
2018-08-10T14:26:28.515Z,27.28
2018-08-10T14:28:54.522Z,27.27
2018-08-10T14:31:20.521Z,27.27
2018-08-10T14:33:46.507Z,27.26
2018-08-10T14:36:12.504Z,27.27
2018-08-10T14:38:38.528Z,27.26
2018-08-10T14:41:04.501Z,27.28
2018-08-10T14:43:30.476Z,27.28
2018-08-10T14:45:56.452Z,27.29
2018-08-10T14:48:22.437Z,27.28
2018-08-10T14:50:49.500Z,27.29
2018-08-10T14:53:15.501Z,27.26
2018-08-10T14:55:41.527Z,27.26
2018-08-10T14:58:07.506Z,27.26
2018-08-10T15:00:33.527Z,27.25
2018-08-10T15:02:59.480Z,27.24
2018-08-10T15:05:25.462Z,27.22
2018-08-10T15:07:51.484Z,27.21
2018-08-10T15:10:17.462Z,27.19
2018-08-10T15:12:43.686Z,27.17
2018-08-10T15:15:09.439Z,27.17
2018-08-10T15:17:35.418Z,27.17
2018-08-10T15:20:01.424Z,27.17
2018-08-10T15:22:27.388Z,27.17
2018-08-10T15:24:53.440Z,27.17
2018-08-10T15:27:19.386Z,27.16
2018-08-10T15:29:45.360Z,27.16
2018-08-10T15:32:11.353Z,27.16
2018-08-10T15:34:37.340Z,27.15
2018-08-10T15:37:03.308Z,27.15
2018-08-10T15:39:29.286Z,27.14
2018-08-10T15:41:55.260Z,27.13
2018-08-10T15:44:21.244Z,27.12
2018-08-10T15:46:47.268Z,27.13
2018-08-10T15:49:13.284Z,27.14
2018-08-10T15:51:39.253Z,27.16
2018-08-10T15:54:05.227Z,27.17
2018-08-10T15:56:31.207Z,27.16
2018-08-10T15:58:57.185Z,27.16
2018-08-10T16:01:23.171Z,27.16
2018-08-10T16:03:49.151Z,27.16
2018-08-10T16:06:15.132Z,27.17
2018-08-10T16:08:41.214Z,27.18
2018-08-10T16:11:07.123Z,27.19
2018-08-10T16:13:33.142Z,27.21
2018-08-10T16:15:59.121Z,27.19
2018-08-10T16:18:25.105Z,27.18
2018-08-10T16:20:51.238Z,27.17
2018-08-10T16:23:17.240Z,27.18
2018-08-10T16:25:43.216Z,27.18
2018-08-10T16:28:09.240Z,27.19
2018-08-10T16:30:35.171Z,27.19
2018-08-10T16:33:01.200Z,27.19
2018-08-10T16:35:27.185Z,27.19
2018-08-10T16:37:53.161Z,27.18
2018-08-10T16:40:19.145Z,27.18
2018-08-10T16:42:45.140Z,27.19
2018-08-10T16:45:11.126Z,27.20
2018-08-10T16:47:37.129Z,27.21
2018-08-10T16:50:03.105Z,27.20
2018-08-10T16:52:29.084Z,27.21
2018-08-10T16:54:55.077Z,27.20
2018-08-10T16:57:21.062Z,27.23
2018-08-10T16:59:47.044Z,27.24
2018-08-10T17:02:13.026Z,27.25
2018-08-10T17:04:39.027Z,27.25
2018-08-10T17:07:05.001Z,27.25
2018-08-10T17:09:30.986Z,27.26
2018-08-10T17:11:56.965Z,27.27
2018-08-10T17:14:22.953Z,27.26
2018-08-10T17:16:48.997Z,27.25
2018-08-10T17:19:15.072Z,27.25
2018-08-10T17:21:41.045Z,27.26
2018-08-10T17:24:07.057Z,27.26
2018-08-10T17:26:33.789Z,27.26
2018-08-10T17:28:59.692Z,27.26
2018-08-10T17:31:25.675Z,27.29
2018-08-10T17:33:51.666Z,27.30
2018-08-10T17:36:17.648Z,27.32
2018-08-10T17:38:43.630Z,27.32
2018-08-10T17:41:09.608Z,27.33
2018-08-10T17:43:35.595Z,27.33
2018-08-10T17:46:01.579Z,27.33
2018-08-10T17:48:27.555Z,27.33
2018-08-10T17:50:59.638Z,27.33
2018-08-10T17:53:25.608Z,27.32
2018-08-10T17:55:51.592Z,27.32
2018-08-10T17:58:17.585Z,27.34
2018-08-10T18:00:43.569Z,27.33
2018-08-10T18:03:09.564Z,27.31
2018-08-10T18:05:35.551Z,27.31
2018-08-10T18:08:01.548Z,27.32
2018-08-10T18:10:27.528Z,27.32
2018-08-10T18:12:53.550Z,27.33
2018-08-10T18:15:19.593Z,27.33
2018-08-10T18:17:45.583Z,27.33
2018-08-10T18:20:11.567Z,27.33
2018-08-10T18:22:37.546Z,27.33
2018-08-10T18:25:03.533Z,27.33
2018-08-10T18:27:29.519Z,27.34
2018-08-10T18:29:55.498Z,27.35
2018-08-10T18:32:32.409Z,27.34
2018-08-10T18:34:58.431Z,27.33
2018-08-10T18:37:24.601Z,27.33
2018-08-10T18:39:50.759Z,27.33
2018-08-10T18:42:20.179Z,27.32
2018-08-10T18:44:46.904Z,27.31
2018-08-10T18:47:34.462Z,27.30
2018-08-10T18:50:02.631Z,27.29
2018-08-10T18:52:28.592Z,27.29
2018-08-10T18:54:54.585Z,27.28
2018-08-10T18:57:20.598Z,27.27
2018-08-10T18:59:46.589Z,27.27
2018-08-10T19:02:12.590Z,27.26
2018-08-10T19:04:38.717Z,27.26
2018-08-10T19:07:04.723Z,27.25
2018-08-10T19:09:30.717Z,27.25
2018-08-10T19:11:56.697Z,27.26
2018-08-10T19:14:22.701Z,27.25
2018-08-10T19:16:48.696Z,27.26
2018-08-10T19:19:14.697Z,27.25
2018-08-10T19:21:40.669Z,27.26
2018-08-10T19:24:06.655Z,27.25
2018-08-10T19:26:32.627Z,27.26
2018-08-10T19:28:58.616Z,27.26
2018-08-10T19:31:24.595Z,27.28
2018-08-10T19:33:50.592Z,27.28
2018-08-10T19:36:16.656Z,27.28
2018-08-10T19:38:42.593Z,27.28
2018-08-10T19:41:08.591Z,27.28
2018-08-10T19:43:34.583Z,27.26
2018-08-10T19:46:00.603Z,27.28
2018-08-10T19:48:26.597Z,27.29
2018-08-10T19:50:52.549Z,27.30
2018-08-10T19:53:18.529Z,27.29
2018-08-10T19:55:44.523Z,27.29
2018-08-10T19:58:10.518Z,27.30
2018-08-10T20:00:36.839Z,27.29
2018-08-10T20:03:04.383Z,27.29
2018-08-10T20:05:30.470Z,27.29
2018-08-10T20:07:56.679Z,27.29
2018-08-10T20:10:23.007Z,27.29
2018-08-10T20:12:49.296Z,27.29
2018-08-10T20:15:30.459Z,27.28
2018-08-10T20:17:56.422Z,27.26
2018-08-10T20:20:23.880Z,27.25
2018-08-10T20:22:50.019Z,27.25
2018-08-10T20:25:16.048Z,27.24
2018-08-10T20:27:42.039Z,27.23
2018-08-10T20:30:08.014Z,27.24
2018-08-10T20:32:34.007Z,27.22
2018-08-10T20:35:01.025Z,27.22
2018-08-10T20:37:27.008Z,27.21
2018-08-10T20:39:54.616Z,27.21
2018-08-10T20:42:20.609Z,27.20
2018-08-10T20:44:46.594Z,27.19
2018-08-10T20:47:12.596Z,27.18
2018-08-10T20:49:38.740Z,27.18
2018-08-10T20:52:04.738Z,27.18
2018-08-10T20:54:30.732Z,27.17
2018-08-10T20:56:56.714Z,27.17
2018-08-10T20:59:23.217Z,27.17
2018-08-10T21:01:49.200Z,27.17
2018-08-10T21:04:15.193Z,27.16
2018-08-10T21:06:41.163Z,27.15
2018-08-10T21:09:07.137Z,27.15
2018-08-10T21:11:33.115Z,27.15
2018-08-10T21:13:59.881Z,27.14
2018-08-10T21:16:28.830Z,27.14
2018-08-10T21:18:55.341Z,27.14
2018-08-10T21:21:21.301Z,27.13
2018-08-10T21:23:48.812Z,27.13
2018-08-10T21:26:14.943Z,27.13
2018-08-10T21:28:41.097Z,27.12
2018-08-10T21:31:07.068Z,27.13
2018-08-10T21:33:33.804Z,27.12
2018-08-10T21:35:59.791Z,27.12
2018-08-10T21:38:25.773Z,27.12
2018-08-10T21:40:51.746Z,27.12
2018-08-10T21:43:17.933Z,27.12
2018-08-10T21:45:44.084Z,27.11
2018-08-10T21:48:10.036Z,27.10
2018-08-10T21:50:36.008Z,27.10
2018-08-10T21:53:02.053Z,27.11
2018-08-10T21:55:28.182Z,27.10
2018-08-10T21:57:54.160Z,27.10
2018-08-10T22:00:20.136Z,27.10
2018-08-10T22:02:46.143Z,27.10
2018-08-10T22:05:12.283Z,27.09
2018-08-10T22:07:38.261Z,27.09
2018-08-10T22:10:04.416Z,27.09
2018-08-10T22:12:30.854Z,27.09
2018-08-10T22:14:56.801Z,27.09
2018-08-10T22:17:23.692Z,27.09
2018-08-10T22:19:49.670Z,27.08
2018-08-10T22:22:15.645Z,27.08
2018-08-10T22:24:44.115Z,27.08
2018-08-10T22:27:10.093Z,27.08
2018-08-10T22:29:36.069Z,27.08
2018-08-10T22:32:02.113Z,27.07
2018-08-10T22:34:28.218Z,27.08
2018-08-10T22:36:54.154Z,27.07
2018-08-10T22:39:20.391Z,27.07
2018-08-10T22:41:46.368Z,27.07
2018-08-10T22:44:12.371Z,27.06
2018-08-10T22:46:38.353Z,27.07
2018-08-10T22:49:04.330Z,27.07
2018-08-10T22:51:30.309Z,27.07
2018-08-10T22:53:56.291Z,27.07
2018-08-10T22:56:22.275Z,27.07
2018-08-10T22:58:48.239Z,27.07
2018-08-10T23:01:14.305Z,27.07
2018-08-10T23:03:40.289Z,27.06
2018-08-10T23:06:06.274Z,27.06
2018-08-10T23:08:32.331Z,27.06
2018-08-10T23:10:58.232Z,27.06
2018-08-10T23:13:24.211Z,27.06
2018-08-10T23:15:50.183Z,27.06
2018-08-10T23:18:16.161Z,27.05
2018-08-10T23:20:42.137Z,27.06
2018-08-10T23:23:08.118Z,27.05
2018-08-10T23:25:34.093Z,27.05
2018-08-10T23:28:00.074Z,27.06
2018-08-10T23:30:26.098Z,27.05
2018-08-10T23:32:52.050Z,27.05
2018-08-10T23:35:18.036Z,27.05
2018-08-10T23:37:44.023Z,27.05
2018-08-10T23:40:10.022Z,27.05
2018-08-10T23:42:36.004Z,27.04
2018-08-10T23:45:01.984Z,27.05
2018-08-10T23:47:27.965Z,27.04
2018-08-10T23:49:53.937Z,27.04
2018-08-10T23:52:19.947Z,27.04
2018-08-10T23:54:45.925Z,27.04
2018-08-10T23:57:11.896Z,27.04
2018-08-10T23:59:37.882Z,27.04
